sensor_id;sensor_type;location;lat;lon;timestamp;P1;durP1;ratioP1;P2;durP2;ratioP2
45208;SDS011;30951;43.994;26.260;2023-10-13T00:00:29;16.02;;;3.83;;
45208;SDS011;30951;43.994;26.260;2023-10-13T00:02:56;12.20;;;3.92;;
45208;SDS011;30951;43.994;26.260;2023-10-13T00:05:26;11.45;;;3.67;;
45208;SDS011;30951;43.994;26.260;2023-10-13T00:08:04;7.55;;;2.83;;
45208;SDS011;30951;43.994;26.260;2023-10-13T00:10:31;20.48;;;3.85;;
45208;SDS011;30951;43.994;26.260;2023-10-13T00:12:57;6.65;;;3.40;;
45208;SDS011;30951;43.994;26.260;2023-10-13T00:15:31;16.55;;;3.30;;
45208;SDS011;30951;43.994;26.260;2023-10-13T00:18:06;11.38;;;3.22;;
45208;SDS011;30951;43.994;26.260;2023-10-13T00:20:39;7.75;;;2.97;;
45208;SDS011;30951;43.994;26.260;2023-10-13T00:23:05;6.70;;;2.83;;
45208;SDS011;30951;43.994;26.260;2023-10-13T00:25:31;5.55;;;2.88;;
45208;SDS011;30951;43.994;26.260;2023-10-13T00:28:05;8.38;;;2.55;;
45208;SDS011;30951;43.994;26.260;2023-10-13T00:30:33;9.52;;;2.60;;
45208;SDS011;30951;43.994;26.260;2023-10-13T00:32:59;4.45;;;2.42;;
45208;SDS011;30951;43.994;26.260;2023-10-13T00:35:28;4.90;;;2.30;;
45208;SDS011;30951;43.994;26.260;2023-10-13T00:37:57;6.25;;;2.45;;
45208;SDS011;30951;43.994;26.260;2023-10-13T00:40:29;7.35;;;2.30;;
45208;SDS011;30951;43.994;26.260;2023-10-13T00:42:56;5.70;;;2.78;;
45208;SDS011;30951;43.994;26.260;2023-10-13T00:45:49;11.20;;;2.70;;
45208;SDS011;30951;43.994;26.260;2023-10-13T00:48:37;17.02;;;2.85;;
45208;SDS011;30951;43.994;26.260;2023-10-13T00:51:29;5.32;;;2.90;;
45208;SDS011;30951;43.994;26.260;2023-10-13T00:54:04;16.60;;;2.53;;
45208;SDS011;30951;43.994;26.260;2023-10-13T00:56:37;5.15;;;2.72;;
45208;SDS011;30951;43.994;26.260;2023-10-13T00:59:06;6.43;;;2.45;;
45208;SDS011;30951;43.994;26.260;2023-10-13T01:01:35;7.63;;;2.47;;
45208;SDS011;30951;43.994;26.260;2023-10-13T01:04:01;20.35;;;4.35;;
45208;SDS011;30951;43.994;26.260;2023-10-13T01:06:30;13.00;;;3.00;;
45208;SDS011;30951;43.994;26.260;2023-10-13T01:11:50;8.50;;;3.10;;
45208;SDS011;30951;43.994;26.260;2023-10-13T01:14:20;8.23;;;3.40;;
45208;SDS011;30951;43.994;26.260;2023-10-13T01:16:46;5.88;;;3.08;;
45208;SDS011;30951;43.994;26.260;2023-10-13T01:19:15;8.63;;;3.08;;
45208;SDS011;30951;43.994;26.260;2023-10-13T01:21:52;11.98;;;3.10;;
45208;SDS011;30951;43.994;26.260;2023-10-13T01:24:28;6.68;;;3.38;;
45208;SDS011;30951;43.994;26.260;2023-10-13T01:26:56;12.43;;;3.00;;
45208;SDS011;30951;43.994;26.260;2023-10-13T01:29:23;18.77;;;3.63;;
45208;SDS011;30951;43.994;26.260;2023-10-13T01:31:54;11.17;;;2.87;;
45208;SDS011;30951;43.994;26.260;2023-10-13T01:34:19;8.68;;;2.97;;
45208;SDS011;30951;43.994;26.260;2023-10-13T01:36:49;5.22;;;2.88;;
45208;SDS011;30951;43.994;26.260;2023-10-13T01:39:16;9.40;;;2.17;;
45208;SDS011;30951;43.994;26.260;2023-10-13T01:41:43;6.55;;;2.78;;
45208;SDS011;30951;43.994;26.260;2023-10-13T01:44:11;7.28;;;2.85;;
45208;SDS011;30951;43.994;26.260;2023-10-13T01:46:39;10.20;;;3.50;;
45208;SDS011;30951;43.994;26.260;2023-10-13T01:49:07;7.10;;;3.47;;
45208;SDS011;30951;43.994;26.260;2023-10-13T01:51:33;10.32;;;2.97;;
45208;SDS011;30951;43.994;26.260;2023-10-13T01:53:58;11.30;;;2.85;;
45208;SDS011;30951;43.994;26.260;2023-10-13T01:56:24;11.00;;;3.33;;
45208;SDS011;30951;43.994;26.260;2023-10-13T01:58:50;8.73;;;3.15;;
45208;SDS011;30951;43.994;26.260;2023-10-13T02:01:17;4.70;;;2.40;;
45208;SDS011;30951;43.994;26.260;2023-10-13T02:03:57;11.20;;;2.72;;
45208;SDS011;30951;43.994;26.260;2023-10-13T02:06:29;10.52;;;2.75;;
45208;SDS011;30951;43.994;26.260;2023-10-13T02:08:59;6.05;;;3.00;;
45208;SDS011;30951;43.994;26.260;2023-10-13T02:11:35;10.30;;;2.50;;
45208;SDS011;30951;43.994;26.260;2023-10-13T02:14:02;7.72;;;2.95;;
45208;SDS011;30951;43.994;26.260;2023-10-13T02:16:28;3.78;;;2.53;;
45208;SDS011;30951;43.994;26.260;2023-10-13T02:18:56;8.52;;;3.17;;
45208;SDS011;30951;43.994;26.260;2023-10-13T02:21:30;4.38;;;2.83;;
45208;SDS011;30951;43.994;26.260;2023-10-13T02:24:00;4.90;;;3.05;;
45208;SDS011;30951;43.994;26.260;2023-10-13T02:26:26;7.80;;;2.88;;
45208;SDS011;30951;43.994;26.260;2023-10-13T02:29:04;9.95;;;3.08;;
45208;SDS011;30951;43.994;26.260;2023-10-13T02:31:36;7.13;;;3.50;;
45208;SDS011;30951;43.994;26.260;2023-10-13T02:34:02;9.70;;;4.00;;
45208;SDS011;30951;43.994;26.260;2023-10-13T02:36:37;11.18;;;3.80;;
45208;SDS011;30951;43.994;26.260;2023-10-13T02:39:17;6.95;;;3.42;;
45208;SDS011;30951;43.994;26.260;2023-10-13T02:41:50;19.30;;;4.00;;
45208;SDS011;30951;43.994;26.260;2023-10-13T02:44:16;10.30;;;4.15;;
45208;SDS011;30951;43.994;26.260;2023-10-13T02:46:51;4.78;;;3.45;;
45208;SDS011;30951;43.994;26.260;2023-10-13T02:49:21;9.13;;;3.60;;
45208;SDS011;30951;43.994;26.260;2023-10-13T02:51:47;10.95;;;3.30;;
45208;SDS011;30951;43.994;26.260;2023-10-13T02:54:12;6.10;;;3.55;;
45208;SDS011;30951;43.994;26.260;2023-10-13T02:56:43;12.50;;;3.42;;
45208;SDS011;30951;43.994;26.260;2023-10-13T02:59:14;5.68;;;2.75;;
45208;SDS011;30951;43.994;26.260;2023-10-13T03:01:40;5.18;;;2.42;;
45208;SDS011;30951;43.994;26.260;2023-10-13T03:04:06;4.97;;;2.10;;
45208;SDS011;30951;43.994;26.260;2023-10-13T03:06:34;6.30;;;2.28;;
45208;SDS011;30951;43.994;26.260;2023-10-13T03:09:01;4.80;;;2.22;;
45208;SDS011;30951;43.994;26.260;2023-10-13T03:11:41;12.35;;;2.60;;
45208;SDS011;30951;43.994;26.260;2023-10-13T03:14:14;5.80;;;2.40;;
45208;SDS011;30951;43.994;26.260;2023-10-13T03:16:51;14.23;;;3.33;;
45208;SDS011;30951;43.994;26.260;2023-10-13T03:19:17;14.32;;;2.80;;
45208;SDS011;30951;43.994;26.260;2023-10-13T03:21:44;11.65;;;3.10;;
45208;SDS011;30951;43.994;26.260;2023-10-13T03:24:19;12.18;;;2.63;;
45208;SDS011;30951;43.994;26.260;2023-10-13T03:26:48;11.65;;;2.83;;
45208;SDS011;30951;43.994;26.260;2023-10-13T03:29:17;10.07;;;2.88;;
45208;SDS011;30951;43.994;26.260;2023-10-13T03:31:47;5.30;;;2.42;;
45208;SDS011;30951;43.994;26.260;2023-10-13T03:34:28;7.53;;;2.75;;
45208;SDS011;30951;43.994;26.260;2023-10-13T03:36:54;9.15;;;2.75;;
45208;SDS011;30951;43.994;26.260;2023-10-13T03:39:23;6.07;;;2.80;;
45208;SDS011;30951;43.994;26.260;2023-10-13T03:41:57;6.30;;;3.05;;
45208;SDS011;30951;43.994;26.260;2023-10-13T03:44:24;11.95;;;2.58;;
45208;SDS011;30951;43.994;26.260;2023-10-13T03:46:55;9.27;;;3.38;;
45208;SDS011;30951;43.994;26.260;2023-10-13T03:49:21;9.15;;;2.85;;
45208;SDS011;30951;43.994;26.260;2023-10-13T03:51:47;62.55;;;5.90;;
45208;SDS011;30951;43.994;26.260;2023-10-13T03:54:14;8.90;;;2.90;;
45208;SDS011;30951;43.994;26.260;2023-10-13T03:56:42;14.55;;;3.10;;
45208;SDS011;30951;43.994;26.260;2023-10-13T03:59:10;9.77;;;2.78;;
45208;SDS011;30951;43.994;26.260;2023-10-13T04:01:44;7.05;;;3.25;;
45208;SDS011;30951;43.994;26.260;2023-10-13T04:04:28;8.45;;;2.95;;
45208;SDS011;30951;43.994;26.260;2023-10-13T04:07:00;9.23;;;3.03;;
45208;SDS011;30951;43.994;26.260;2023-10-13T04:09:35;19.45;;;3.13;;
45208;SDS011;30951;43.994;26.260;2023-10-13T04:12:05;21.05;;;4.75;;
45208;SDS011;30951;43.994;26.260;2023-10-13T04:14:44;8.10;;;2.90;;
45208;SDS011;30951;43.994;26.260;2023-10-13T04:17:21;13.38;;;3.75;;
45208;SDS011;30951;43.994;26.260;2023-10-13T04:19:56;8.10;;;3.25;;
45208;SDS011;30951;43.994;26.260;2023-10-13T04:25:13;17.88;;;3.60;;
45208;SDS011;30951;43.994;26.260;2023-10-13T04:28:07;11.57;;;3.03;;
45208;SDS011;30951;43.994;26.260;2023-10-13T04:30:43;11.05;;;3.67;;
45208;SDS011;30951;43.994;26.260;2023-10-13T04:33:22;20.70;;;4.00;;
45208;SDS011;30951;43.994;26.260;2023-10-13T04:36:14;10.40;;;3.53;;
45208;SDS011;30951;43.994;26.260;2023-10-13T04:53:40;35.00;;;4.43;;
45208;SDS011;30951;43.994;26.260;2023-10-13T04:56:24;22.20;;;4.40;;
45208;SDS011;30951;43.994;26.260;2023-10-13T04:59:07;14.90;;;4.20;;
45208;SDS011;30951;43.994;26.260;2023-10-13T05:01:52;18.48;;;4.28;;
45208;SDS011;30951;43.994;26.260;2023-10-13T05:04:36;26.92;;;4.05;;
45208;SDS011;30951;43.994;26.260;2023-10-13T05:07:24;20.65;;;4.10;;
45208;SDS011;30951;43.994;26.260;2023-10-13T05:10:08;18.35;;;4.60;;
45208;SDS011;30951;43.994;26.260;2023-10-13T05:12:52;8.18;;;4.07;;
45208;SDS011;30951;43.994;26.260;2023-10-13T05:15:42;24.33;;;4.40;;
45208;SDS011;30951;43.994;26.260;2023-10-13T05:18:36;24.67;;;4.55;;
45208;SDS011;30951;43.994;26.260;2023-10-13T05:21:20;11.65;;;4.10;;
45208;SDS011;30951;43.994;26.260;2023-10-13T05:24:05;10.20;;;3.90;;
45208;SDS011;30951;43.994;26.260;2023-10-13T05:26:49;15.07;;;3.95;;
45208;SDS011;30951;43.994;26.260;2023-10-13T05:29:33;17.15;;;3.80;;
45208;SDS011;30951;43.994;26.260;2023-10-13T05:32:17;11.27;;;4.35;;
45208;SDS011;30951;43.994;26.260;2023-10-13T05:35:01;13.05;;;3.88;;
45208;SDS011;30951;43.994;26.260;2023-10-13T05:37:46;10.40;;;3.50;;
45208;SDS011;30951;43.994;26.260;2023-10-13T05:40:30;15.68;;;4.10;;
45208;SDS011;30951;43.994;26.260;2023-10-13T05:43:14;11.95;;;4.80;;
45208;SDS011;30951;43.994;26.260;2023-10-13T05:46:01;8.75;;;2.80;;
45208;SDS011;30951;43.994;26.260;2023-10-13T05:49:06;6.63;;;3.90;;
45208;SDS011;30951;43.994;26.260;2023-10-13T05:51:42;10.55;;;3.85;;
45208;SDS011;30951;43.994;26.260;2023-10-13T05:54:25;20.05;;;4.38;;
45208;SDS011;30951;43.994;26.260;2023-10-13T05:57:09;13.20;;;4.20;;
45208;SDS011;30951;43.994;26.260;2023-10-13T06:00:09;12.17;;;4.20;;
45208;SDS011;30951;43.994;26.260;2023-10-13T06:02:53;9.90;;;4.50;;
45208;SDS011;30951;43.994;26.260;2023-10-13T06:05:37;8.65;;;4.45;;
45208;SDS011;30951;43.994;26.260;2023-10-13T06:08:21;12.90;;;4.47;;
45208;SDS011;30951;43.994;26.260;2023-10-13T06:11:05;13.63;;;5.07;;
45208;SDS011;30951;43.994;26.260;2023-10-13T06:13:49;21.80;;;5.80;;
45208;SDS011;30951;43.994;26.260;2023-10-13T06:16:33;12.10;;;4.88;;
45208;SDS011;30951;43.994;26.260;2023-10-13T06:19:17;15.90;;;5.68;;
45208;SDS011;30951;43.994;26.260;2023-10-13T06:22:01;25.25;;;5.65;;
45208;SDS011;30951;43.994;26.260;2023-10-13T06:24:44;16.75;;;5.18;;
45208;SDS011;30951;43.994;26.260;2023-10-13T06:27:28;17.33;;;5.72;;
45208;SDS011;30951;43.994;26.260;2023-10-13T06:30:12;13.98;;;5.97;;
45208;SDS011;30951;43.994;26.260;2023-10-13T06:32:38;24.05;;;5.47;;
45208;SDS011;30951;43.994;26.260;2023-10-13T06:35:05;20.08;;;6.13;;
45208;SDS011;30951;43.994;26.260;2023-10-13T06:37:43;15.98;;;6.03;;
45208;SDS011;30951;43.994;26.260;2023-10-13T06:40:10;17.95;;;6.18;;
45208;SDS011;30951;43.994;26.260;2023-10-13T06:42:48;14.93;;;5.63;;
45208;SDS011;30951;43.994;26.260;2023-10-13T06:45:14;17.13;;;5.70;;
45208;SDS011;30951;43.994;26.260;2023-10-13T06:47:42;10.38;;;5.63;;
45208;SDS011;30951;43.994;26.260;2023-10-13T06:50:09;19.17;;;3.95;;
45208;SDS011;30951;43.994;26.260;2023-10-13T06:52:44;21.95;;;4.43;;
45208;SDS011;30951;43.994;26.260;2023-10-13T06:55:13;11.10;;;4.00;;
45208;SDS011;30951;43.994;26.260;2023-10-13T06:57:45;26.45;;;5.10;;
45208;SDS011;30951;43.994;26.260;2023-10-13T07:00:12;11.55;;;4.95;;
45208;SDS011;30951;43.994;26.260;2023-10-13T07:02:48;9.80;;;5.15;;
45208;SDS011;30951;43.994;26.260;2023-10-13T07:05:16;19.85;;;5.38;;
45208;SDS011;30951;43.994;26.260;2023-10-13T07:07:42;18.50;;;7.47;;
45208;SDS011;30951;43.994;26.260;2023-10-13T07:10:12;20.30;;;7.85;;
45208;SDS011;30951;43.994;26.260;2023-10-13T07:12:38;12.32;;;5.97;;
45208;SDS011;30951;43.994;26.260;2023-10-13T07:15:09;16.83;;;5.07;;
45208;SDS011;30951;43.994;26.260;2023-10-13T07:17:44;14.43;;;4.78;;
45208;SDS011;30951;43.994;26.260;2023-10-13T07:20:11;14.55;;;4.88;;
45208;SDS011;30951;43.994;26.260;2023-10-13T07:23:02;15.40;;;5.18;;
45208;SDS011;30951;43.994;26.260;2023-10-13T07:25:34;17.92;;;7.25;;
45208;SDS011;30951;43.994;26.260;2023-10-13T07:28:12;14.55;;;8.18;;
45208;SDS011;30951;43.994;26.260;2023-10-13T07:30:40;20.98;;;7.65;;
45208;SDS011;30951;43.994;26.260;2023-10-13T07:33:18;20.42;;;7.82;;
45208;SDS011;30951;43.994;26.260;2023-10-13T07:35:45;19.38;;;6.93;;
45208;SDS011;30951;43.994;26.260;2023-10-13T07:38:17;15.55;;;5.88;;
45208;SDS011;30951;43.994;26.260;2023-10-13T07:40:43;20.05;;;6.65;;
45208;SDS011;30951;43.994;26.260;2023-10-13T07:43:16;22.63;;;6.60;;
45208;SDS011;30951;43.994;26.260;2023-10-13T07:45:46;15.10;;;4.70;;
45208;SDS011;30951;43.994;26.260;2023-10-13T07:48:15;15.63;;;4.60;;
45208;SDS011;30951;43.994;26.260;2023-10-13T07:50:45;22.08;;;7.90;;
45208;SDS011;30951;43.994;26.260;2023-10-13T07:53:51;27.67;;;8.50;;
45208;SDS011;30951;43.994;26.260;2023-10-13T07:56:18;24.95;;;8.07;;
45208;SDS011;30951;43.994;26.260;2023-10-13T07:58:44;33.63;;;12.32;;
45208;SDS011;30951;43.994;26.260;2023-10-13T08:01:25;30.42;;;7.50;;
45208;SDS011;30951;43.994;26.260;2023-10-13T08:03:53;14.00;;;6.43;;
45208;SDS011;30951;43.994;26.260;2023-10-13T08:06:37;16.88;;;5.18;;
45208;SDS011;30951;43.994;26.260;2023-10-13T08:09:05;20.52;;;6.10;;
45208;SDS011;30951;43.994;26.260;2023-10-13T08:11:43;20.90;;;5.47;;
45208;SDS011;30951;43.994;26.260;2023-10-13T08:14:09;12.25;;;5.55;;
45208;SDS011;30951;43.994;26.260;2023-10-13T08:16:43;16.15;;;6.28;;
45208;SDS011;30951;43.994;26.260;2023-10-13T08:19:18;19.02;;;6.85;;
45208;SDS011;30951;43.994;26.260;2023-10-13T08:21:48;13.07;;;6.90;;
45208;SDS011;30951;43.994;26.260;2023-10-13T08:24:48;10.30;;;5.63;;
45208;SDS011;30951;43.994;26.260;2023-10-13T08:27:15;19.42;;;6.97;;
45208;SDS011;30951;43.994;26.260;2023-10-13T08:30:02;15.18;;;5.75;;
45208;SDS011;30951;43.994;26.260;2023-10-13T08:33:01;13.15;;;6.88;;
45208;SDS011;30951;43.994;26.260;2023-10-13T08:35:42;19.25;;;6.78;;
45208;SDS011;30951;43.994;26.260;2023-10-13T08:38:19;21.15;;;7.00;;
45208;SDS011;30951;43.994;26.260;2023-10-13T08:40:53;27.17;;;6.22;;
45208;SDS011;30951;43.994;26.260;2023-10-13T08:43:42;12.40;;;6.55;;
45208;SDS011;30951;43.994;26.260;2023-10-13T08:46:10;36.65;;;6.57;;
45208;SDS011;30951;43.994;26.260;2023-10-13T08:48:52;17.80;;;6.45;;
45208;SDS011;30951;43.994;26.260;2023-10-13T08:51:29;23.38;;;6.65;;
45208;SDS011;30951;43.994;26.260;2023-10-13T08:54:08;29.38;;;11.73;;
45208;SDS011;30951;43.994;26.260;2023-10-13T08:56:45;28.02;;;9.98;;
45208;SDS011;30951;43.994;26.260;2023-10-13T08:59:20;26.23;;;10.10;;
45208;SDS011;30951;43.994;26.260;2023-10-13T09:01:58;26.05;;;7.10;;
45208;SDS011;30951;43.994;26.260;2023-10-13T09:04:42;18.50;;;6.65;;
45208;SDS011;30951;43.994;26.260;2023-10-13T09:07:10;20.67;;;7.07;;
45208;SDS011;30951;43.994;26.260;2023-10-13T09:12:21;20.48;;;6.35;;
45208;SDS011;30951;43.994;26.260;2023-10-13T09:15:00;30.98;;;5.95;;
45208;SDS011;30951;43.994;26.260;2023-10-13T09:17:50;11.27;;;7.05;;
45208;SDS011;30951;43.994;26.260;2023-10-13T09:20:15;26.30;;;5.68;;
45208;SDS011;30951;43.994;26.260;2023-10-13T09:22:50;15.88;;;5.03;;
45208;SDS011;30951;43.994;26.260;2023-10-13T09:25:33;17.10;;;5.38;;
45208;SDS011;30951;43.994;26.260;2023-10-13T09:28:01;21.45;;;5.55;;
45208;SDS011;30951;43.994;26.260;2023-10-13T09:30:27;17.77;;;5.60;;
45208;SDS011;30951;43.994;26.260;2023-10-13T09:33:03;21.67;;;5.15;;
45208;SDS011;30951;43.994;26.260;2023-10-13T09:35:33;20.52;;;5.57;;
45208;SDS011;30951;43.994;26.260;2023-10-13T09:38:02;13.55;;;4.47;;
45208;SDS011;30951;43.994;26.260;2023-10-13T09:40:28;13.55;;;4.60;;
45208;SDS011;30951;43.994;26.260;2023-10-13T09:42:57;28.52;;;9.18;;
45208;SDS011;30951;43.994;26.260;2023-10-13T09:45:28;46.92;;;8.93;;
45208;SDS011;30951;43.994;26.260;2023-10-13T09:48:02;23.98;;;7.85;;
45208;SDS011;30951;43.994;26.260;2023-10-13T09:50:39;18.40;;;6.70;;
45208;SDS011;30951;43.994;26.260;2023-10-13T09:53:06;23.95;;;5.40;;
45208;SDS011;30951;43.994;26.260;2023-10-13T09:55:41;27.90;;;8.77;;
45208;SDS011;30951;43.994;26.260;2023-10-13T09:58:10;17.00;;;6.65;;
45208;SDS011;30951;43.994;26.260;2023-10-13T10:00:41;20.52;;;6.97;;
45208;SDS011;30951;43.994;26.260;2023-10-13T10:03:13;17.20;;;5.80;;
45208;SDS011;30951;43.994;26.260;2023-10-13T10:06:02;17.42;;;6.75;;
45208;SDS011;30951;43.994;26.260;2023-10-13T10:08:33;21.83;;;5.63;;
45208;SDS011;30951;43.994;26.260;2023-10-13T10:17:05;20.00;;;6.43;;
45208;SDS011;30951;43.994;26.260;2023-10-13T10:22:12;25.73;;;9.07;;
45208;SDS011;30951;43.994;26.260;2023-10-13T10:24:55;19.70;;;7.88;;
45208;SDS011;30951;43.994;26.260;2023-10-13T10:27:55;34.92;;;12.75;;
45208;SDS011;30951;43.994;26.260;2023-10-13T10:30:26;25.67;;;9.25;;
45208;SDS011;30951;43.994;26.260;2023-10-13T10:32:55;25.65;;;7.35;;
45208;SDS011;30951;43.994;26.260;2023-10-13T10:35:25;35.85;;;7.35;;
45208;SDS011;30951;43.994;26.260;2023-10-13T10:38:13;38.55;;;7.47;;
45208;SDS011;30951;43.994;26.260;2023-10-13T10:40:55;27.17;;;7.90;;
45208;SDS011;30951;43.994;26.260;2023-10-13T10:43:26;21.95;;;6.03;;
45208;SDS011;30951;43.994;26.260;2023-10-13T10:45:54;19.48;;;6.28;;
45208;SDS011;30951;43.994;26.260;2023-10-13T10:48:25;14.07;;;5.72;;
45208;SDS011;30951;43.994;26.260;2023-10-13T10:50:56;30.42;;;6.45;;
45208;SDS011;30951;43.994;26.260;2023-10-13T10:53:24;12.55;;;5.15;;
45208;SDS011;30951;43.994;26.260;2023-10-13T10:56:04;29.50;;;5.70;;
45208;SDS011;30951;43.994;26.260;2023-10-13T10:58:33;9.32;;;5.22;;
45208;SDS011;30951;43.994;26.260;2023-10-13T11:01:09;20.25;;;6.32;;
45208;SDS011;30951;43.994;26.260;2023-10-13T11:03:52;15.10;;;5.97;;
45208;SDS011;30951;43.994;26.260;2023-10-13T11:09:04;20.80;;;5.10;;
45208;SDS011;30951;43.994;26.260;2023-10-13T11:11:33;22.75;;;4.78;;
45208;SDS011;30951;43.994;26.260;2023-10-13T11:14:01;21.73;;;4.95;;
45208;SDS011;30951;43.994;26.260;2023-10-13T11:16:46;14.43;;;3.90;;
45208;SDS011;30951;43.994;26.260;2023-10-13T11:19:16;18.80;;;4.97;;
45208;SDS011;30951;43.994;26.260;2023-10-13T11:21:45;19.45;;;4.25;;
45208;SDS011;30951;43.994;26.260;2023-10-13T11:24:13;16.77;;;4.53;;
45208;SDS011;30951;43.994;26.260;2023-10-13T11:26:39;19.10;;;4.13;;
45208;SDS011;30951;43.994;26.260;2023-10-13T11:29:14;12.05;;;5.07;;
45208;SDS011;30951;43.994;26.260;2023-10-13T11:32:00;12.10;;;4.30;;
45208;SDS011;30951;43.994;26.260;2023-10-13T11:34:28;18.38;;;4.47;;
45208;SDS011;30951;43.994;26.260;2023-10-13T11:37:05;17.70;;;4.28;;
45208;SDS011;30951;43.994;26.260;2023-10-13T11:39:51;86.90;;;7.72;;
45208;SDS011;30951;43.994;26.260;2023-10-13T11:42:17;10.02;;;4.60;;
45208;SDS011;30951;43.994;26.260;2023-10-13T11:44:43;21.88;;;4.80;;
45208;SDS011;30951;43.994;26.260;2023-10-13T11:47:09;13.15;;;4.07;;
45208;SDS011;30951;43.994;26.260;2023-10-13T11:49:55;13.30;;;4.75;;
45208;SDS011;30951;43.994;26.260;2023-10-13T11:52:23;23.27;;;4.60;;
45208;SDS011;30951;43.994;26.260;2023-10-13T11:54:51;18.85;;;4.97;;
45208;SDS011;30951;43.994;26.260;2023-10-13T11:57:17;24.27;;;4.95;;
45208;SDS011;30951;43.994;26.260;2023-10-13T11:59:44;18.55;;;5.35;;
45208;SDS011;30951;43.994;26.260;2023-10-13T12:02:18;13.63;;;4.90;;
45208;SDS011;30951;43.994;26.260;2023-10-13T12:04:52;23.05;;;6.88;;
45208;SDS011;30951;43.994;26.260;2023-10-13T12:07:22;22.83;;;8.15;;
45208;SDS011;30951;43.994;26.260;2023-10-13T12:10:07;19.02;;;7.05;;
45208;SDS011;30951;43.994;26.260;2023-10-13T12:12:40;19.30;;;8.70;;
45208;SDS011;30951;43.994;26.260;2023-10-13T12:15:08;26.23;;;7.38;;
45208;SDS011;30951;43.994;26.260;2023-10-13T12:17:35;29.60;;;8.75;;
45208;SDS011;30951;43.994;26.260;2023-10-13T12:20:01;27.35;;;6.68;;
45208;SDS011;30951;43.994;26.260;2023-10-13T12:22:30;25.58;;;8.57;;
45208;SDS011;30951;43.994;26.260;2023-10-13T12:25:11;24.45;;;11.40;;
45208;SDS011;30951;43.994;26.260;2023-10-13T12:27:55;26.60;;;11.27;;
45208;SDS011;30951;43.994;26.260;2023-10-13T12:30:31;35.10;;;14.02;;
45208;SDS011;30951;43.994;26.260;2023-10-13T12:33:18;35.90;;;16.15;;
45208;SDS011;30951;43.994;26.260;2023-10-13T12:35:56;49.35;;;21.48;;
45208;SDS011;30951;43.994;26.260;2023-10-13T12:38:34;44.60;;;19.08;;
45208;SDS011;30951;43.994;26.260;2023-10-13T12:41:13;47.60;;;21.40;;
45208;SDS011;30951;43.994;26.260;2023-10-13T12:43:57;31.50;;;18.95;;
45208;SDS011;30951;43.994;26.260;2023-10-13T12:46:42;22.92;;;12.13;;
45208;SDS011;30951;43.994;26.260;2023-10-13T12:49:26;25.52;;;8.30;;
45208;SDS011;30951;43.994;26.260;2023-10-13T12:52:07;32.78;;;7.93;;
45208;SDS011;30951;43.994;26.260;2023-10-13T12:54:47;20.48;;;6.13;;
45208;SDS011;30951;43.994;26.260;2023-10-13T12:57:33;18.55;;;6.00;;
45208;SDS011;30951;43.994;26.260;2023-10-13T12:59:59;21.75;;;5.88;;
45208;SDS011;30951;43.994;26.260;2023-10-13T13:02:25;12.43;;;4.97;;
45208;SDS011;30951;43.994;26.260;2023-10-13T13:04:51;15.68;;;4.32;;
45208;SDS011;30951;43.994;26.260;2023-10-13T13:07:22;15.13;;;4.93;;
45208;SDS011;30951;43.994;26.260;2023-10-13T13:09:54;11.15;;;4.63;;
45208;SDS011;30951;43.994;26.260;2023-10-13T13:12:24;21.85;;;4.40;;
45208;SDS011;30951;43.994;26.260;2023-10-13T13:14:50;21.52;;;6.45;;
45208;SDS011;30951;43.994;26.260;2023-10-13T13:17:20;14.45;;;5.00;;
45208;SDS011;30951;43.994;26.260;2023-10-13T13:19:46;15.45;;;6.25;;
45208;SDS011;30951;43.994;26.260;2023-10-13T13:22:11;17.90;;;5.55;;
45208;SDS011;30951;43.994;26.260;2023-10-13T13:24:40;21.38;;;5.95;;
45208;SDS011;30951;43.994;26.260;2023-10-13T13:27:10;14.80;;;5.55;;
45208;SDS011;30951;43.994;26.260;2023-10-13T13:29:47;33.75;;;6.32;;
45208;SDS011;30951;43.994;26.260;2023-10-13T13:32:13;18.52;;;5.25;;
45208;SDS011;30951;43.994;26.260;2023-10-13T13:34:49;43.08;;;6.95;;
45208;SDS011;30951;43.994;26.260;2023-10-13T13:37:24;20.38;;;5.93;;
45208;SDS011;30951;43.994;26.260;2023-10-13T13:39:52;23.38;;;6.35;;
45208;SDS011;30951;43.994;26.260;2023-10-13T13:42:18;44.25;;;6.78;;
45208;SDS011;30951;43.994;26.260;2023-10-13T13:44:46;23.33;;;5.75;;
45208;SDS011;30951;43.994;26.260;2023-10-13T13:47:12;30.77;;;6.60;;
45208;SDS011;30951;43.994;26.260;2023-10-13T13:49:39;35.92;;;9.18;;
45208;SDS011;30951;43.994;26.260;2023-10-13T13:52:06;36.85;;;7.28;;
45208;SDS011;30951;43.994;26.260;2023-10-13T13:54:35;27.60;;;6.43;;
45208;SDS011;30951;43.994;26.260;2023-10-13T13:57:00;24.25;;;5.75;;
45208;SDS011;30951;43.994;26.260;2023-10-13T13:59:26;21.52;;;6.22;;
45208;SDS011;30951;43.994;26.260;2023-10-13T14:01:58;21.17;;;7.18;;
45208;SDS011;30951;43.994;26.260;2023-10-13T14:04:24;26.08;;;5.80;;
45208;SDS011;30951;43.994;26.260;2023-10-13T14:06:50;17.15;;;6.72;;
45208;SDS011;30951;43.994;26.260;2023-10-13T14:09:15;28.73;;;5.85;;
45208;SDS011;30951;43.994;26.260;2023-10-13T14:11:42;21.02;;;6.32;;
45208;SDS011;30951;43.994;26.260;2023-10-13T14:14:22;17.42;;;5.68;;
45208;SDS011;30951;43.994;26.260;2023-10-13T14:16:50;29.33;;;6.63;;
45208;SDS011;30951;43.994;26.260;2023-10-13T14:19:16;36.70;;;7.38;;
45208;SDS011;30951;43.994;26.260;2023-10-13T14:22:00;32.58;;;6.47;;
45208;SDS011;30951;43.994;26.260;2023-10-13T14:24:31;35.60;;;5.97;;
45208;SDS011;30951;43.994;26.260;2023-10-13T14:27:02;28.95;;;7.55;;
45208;SDS011;30951;43.994;26.260;2023-10-13T14:29:40;23.15;;;6.97;;
45208;SDS011;30951;43.994;26.260;2023-10-13T14:32:11;21.73;;;6.90;;
45208;SDS011;30951;43.994;26.260;2023-10-13T14:34:41;21.92;;;6.45;;
45208;SDS011;30951;43.994;26.260;2023-10-13T14:37:07;21.48;;;6.75;;
45208;SDS011;30951;43.994;26.260;2023-10-13T14:39:33;24.58;;;7.32;;
45208;SDS011;30951;43.994;26.260;2023-10-13T14:42:01;13.13;;;6.18;;
45208;SDS011;30951;43.994;26.260;2023-10-13T14:44:28;17.83;;;6.65;;
45208;SDS011;30951;43.994;26.260;2023-10-13T14:46:53;21.60;;;7.05;;
45208;SDS011;30951;43.994;26.260;2023-10-13T14:49:21;18.27;;;6.80;;
45208;SDS011;30951;43.994;26.260;2023-10-13T14:51:47;12.32;;;5.60;;
45208;SDS011;30951;43.994;26.260;2023-10-13T14:54:14;18.23;;;5.60;;
45208;SDS011;30951;43.994;26.260;2023-10-13T14:56:40;27.60;;;5.40;;
45208;SDS011;30951;43.994;26.260;2023-10-13T14:59:09;19.50;;;5.70;;
45208;SDS011;30951;43.994;26.260;2023-10-13T15:01:42;33.85;;;6.13;;
45208;SDS011;30951;43.994;26.260;2023-10-13T15:04:08;18.48;;;5.38;;
45208;SDS011;30951;43.994;26.260;2023-10-13T15:06:33;13.48;;;5.25;;
45208;SDS011;30951;43.994;26.260;2023-10-13T15:08:59;24.13;;;5.43;;
45208;SDS011;30951;43.994;26.260;2023-10-13T15:11:26;18.85;;;5.85;;
45208;SDS011;30951;43.994;26.260;2023-10-13T15:13:55;23.98;;;5.57;;
45208;SDS011;30951;43.994;26.260;2023-10-13T15:16:25;15.55;;;4.90;;
45208;SDS011;30951;43.994;26.260;2023-10-13T15:18:52;12.50;;;4.47;;
45208;SDS011;30951;43.994;26.260;2023-10-13T15:21:18;19.42;;;4.68;;
45208;SDS011;30951;43.994;26.260;2023-10-13T15:23:44;31.58;;;5.53;;
45208;SDS011;30951;43.994;26.260;2023-10-13T15:26:10;25.00;;;6.38;;
45208;SDS011;30951;43.994;26.260;2023-10-13T15:28:38;18.38;;;4.88;;
45208;SDS011;30951;43.994;26.260;2023-10-13T15:31:13;14.05;;;5.07;;
45208;SDS011;30951;43.994;26.260;2023-10-13T15:34:00;17.60;;;5.97;;